sensor_id;sensor_type;location;lat;lon;timestamp;P1;durP1;ratioP1;P2;durP2;ratioP2
52946;SDS011;68773;40.400;17.260;2023-06-22T00:00:54;7.00;;;4.75;;
52946;SDS011;68773;40.400;17.260;2023-06-22T00:03:22;6.95;;;5.15;;
52946;SDS011;68773;40.400;17.260;2023-06-22T00:05:52;10.20;;;5.90;;
52946;SDS011;68773;40.400;17.260;2023-06-22T00:08:18;8.13;;;5.32;;
52946;SDS011;68773;40.400;17.260;2023-06-22T00:10:44;10.70;;;5.35;;
52946;SDS011;68773;40.400;17.260;2023-06-22T00:13:11;10.80;;;5.85;;
52946;SDS011;68773;40.400;17.260;2023-06-22T00:15:38;9.00;;;5.60;;
52946;SDS011;68773;40.400;17.260;2023-06-22T00:18:08;7.85;;;5.38;;
52946;SDS011;68773;40.400;17.260;2023-06-22T00:20:35;8.15;;;5.03;;
52946;SDS011;68773;40.400;17.260;2023-06-22T00:23:05;7.80;;;5.68;;
52946;SDS011;68773;40.400;17.260;2023-06-22T00:25:38;10.05;;;5.70;;
52946;SDS011;68773;40.400;17.260;2023-06-22T00:28:06;8.07;;;5.32;;
52946;SDS011;68773;40.400;17.260;2023-06-22T00:30:33;11.05;;;5.75;;
52946;SDS011;68773;40.400;17.260;2023-06-22T00:32:59;10.02;;;5.93;;
52946;SDS011;68773;40.400;17.260;2023-06-22T00:35:26;11.02;;;5.45;;
52946;SDS011;68773;40.400;17.260;2023-06-22T00:37:54;8.75;;;5.70;;
52946;SDS011;68773;40.400;17.260;2023-06-22T00:40:27;9.07;;;5.35;;
52946;SDS011;68773;40.400;17.260;2023-06-22T00:42:54;7.60;;;4.75;;
52946;SDS011;68773;40.400;17.260;2023-06-22T00:45:21;9.35;;;5.53;;
52946;SDS011;68773;40.400;17.260;2023-06-22T00:47:55;8.45;;;6.15;;
52946;SDS011;68773;40.400;17.260;2023-06-22T00:52:52;12.63;;;5.55;;
52946;SDS011;68773;40.400;17.260;2023-06-22T00:55:22;9.35;;;6.05;;
52946;SDS011;68773;40.400;17.260;2023-06-22T00:57:49;11.27;;;6.28;;
52946;SDS011;68773;40.400;17.260;2023-06-22T01:00:15;9.88;;;6.25;;
52946;SDS011;68773;40.400;17.260;2023-06-22T01:02:44;9.88;;;6.07;;
52946;SDS011;68773;40.400;17.260;2023-06-22T01:05:12;10.02;;;6.07;;
52946;SDS011;68773;40.400;17.260;2023-06-22T01:07:40;8.38;;;5.80;;
52946;SDS011;68773;40.400;17.260;2023-06-22T01:10:16;11.75;;;6.05;;
52946;SDS011;68773;40.400;17.260;2023-06-22T01:12:51;10.68;;;5.80;;
52946;SDS011;68773;40.400;17.260;2023-06-22T01:15:25;9.00;;;5.40;;
52946;SDS011;68773;40.400;17.260;2023-06-22T01:17:56;11.18;;;5.95;;
52946;SDS011;68773;40.400;17.260;2023-06-22T01:20:23;8.85;;;6.03;;
52946;SDS011;68773;40.400;17.260;2023-06-22T01:28:51;8.00;;;5.57;;
52946;SDS011;68773;40.400;17.260;2023-06-22T01:31:20;9.95;;;6.10;;
52946;SDS011;68773;40.400;17.260;2023-06-22T01:33:56;10.75;;;6.00;;
52946;SDS011;68773;40.400;17.260;2023-06-22T01:36:24;9.55;;;5.55;;
52946;SDS011;68773;40.400;17.260;2023-06-22T01:38:51;11.18;;;6.28;;
52946;SDS011;68773;40.400;17.260;2023-06-22T01:41:19;9.82;;;6.28;;
52946;SDS011;68773;40.400;17.260;2023-06-22T01:43:45;12.77;;;6.32;;
52946;SDS011;68773;40.400;17.260;2023-06-22T01:46:13;8.90;;;6.38;;
52946;SDS011;68773;40.400;17.260;2023-06-22T01:48:39;9.77;;;5.88;;
52946;SDS011;68773;40.400;17.260;2023-06-22T01:51:06;9.40;;;5.75;;
52946;SDS011;68773;40.400;17.260;2023-06-22T01:53:31;10.32;;;5.72;;
52946;SDS011;68773;40.400;17.260;2023-06-22T01:55:57;11.02;;;5.82;;
52946;SDS011;68773;40.400;17.260;2023-06-22T01:58:25;11.52;;;5.70;;
52946;SDS011;68773;40.400;17.260;2023-06-22T02:00:55;9.40;;;5.80;;
52946;SDS011;68773;40.400;17.260;2023-06-22T02:03:29;11.05;;;5.88;;
52946;SDS011;68773;40.400;17.260;2023-06-22T02:06:01;8.20;;;5.35;;
52946;SDS011;68773;40.400;17.260;2023-06-22T02:08:31;7.97;;;5.95;;
52946;SDS011;68773;40.400;17.260;2023-06-22T02:11:01;11.73;;;6.03;;
52946;SDS011;68773;40.400;17.260;2023-06-22T02:13:28;8.57;;;5.93;;
52946;SDS011;68773;40.400;17.260;2023-06-22T02:15:55;7.95;;;5.60;;
52946;SDS011;68773;40.400;17.260;2023-06-22T02:18:22;9.80;;;5.63;;
52946;SDS011;68773;40.400;17.260;2023-06-22T02:20:47;9.15;;;5.68;;
52946;SDS011;68773;40.400;17.260;2023-06-22T02:23:13;10.13;;;5.63;;
52946;SDS011;68773;40.400;17.260;2023-06-22T02:25:39;11.27;;;5.72;;
52946;SDS011;68773;40.400;17.260;2023-06-22T02:28:04;10.43;;;5.75;;
52946;SDS011;68773;40.400;17.260;2023-06-22T02:30:30;10.18;;;5.65;;
52946;SDS011;68773;40.400;17.260;2023-06-22T02:32:56;7.85;;;5.68;;
52946;SDS011;68773;40.400;17.260;2023-06-22T02:35:28;8.55;;;5.80;;
52946;SDS011;68773;40.400;17.260;2023-06-22T02:38:00;11.40;;;5.88;;
52946;SDS011;68773;40.400;17.260;2023-06-22T02:40:28;9.60;;;5.75;;
52946;SDS011;68773;40.400;17.260;2023-06-22T02:42:54;7.80;;;5.88;;
52946;SDS011;68773;40.400;17.260;2023-06-22T02:45:23;8.82;;;5.22;;
52946;SDS011;68773;40.400;17.260;2023-06-22T02:47:48;10.73;;;6.03;;
52946;SDS011;68773;40.400;17.260;2023-06-22T02:50:14;8.77;;;5.53;;
52946;SDS011;68773;40.400;17.260;2023-06-22T02:52:40;9.50;;;5.95;;
52946;SDS011;68773;40.400;17.260;2023-06-22T02:55:06;6.82;;;5.50;;
52946;SDS011;68773;40.400;17.260;2023-06-22T02:57:34;9.25;;;5.90;;
52946;SDS011;68773;40.400;17.260;2023-06-22T03:00:19;9.75;;;6.10;;
52946;SDS011;68773;40.400;17.260;2023-06-22T03:02:46;11.35;;;5.90;;
52946;SDS011;68773;40.400;17.260;2023-06-22T03:05:13;7.57;;;5.60;;
52946;SDS011;68773;40.400;17.260;2023-06-22T03:07:40;12.40;;;6.25;;
52946;SDS011;68773;40.400;17.260;2023-06-22T03:13:18;14.38;;;6.28;;
52946;SDS011;68773;40.400;17.260;2023-06-22T03:15:44;11.82;;;5.97;;
52946;SDS011;68773;40.400;17.260;2023-06-22T03:18:11;8.25;;;6.18;;
52946;SDS011;68773;40.400;17.260;2023-06-22T03:20:39;6.90;;;5.43;;
52946;SDS011;68773;40.400;17.260;2023-06-22T03:23:05;10.68;;;6.50;;
52946;SDS011;68773;40.400;17.260;2023-06-22T03:25:31;11.43;;;6.57;;
52946;SDS011;68773;40.400;17.260;2023-06-22T03:27:56;10.05;;;6.13;;
52946;SDS011;68773;40.400;17.260;2023-06-22T03:30:22;8.20;;;5.78;;
52946;SDS011;68773;40.400;17.260;2023-06-22T03:32:48;11.55;;;5.90;;
52946;SDS011;68773;40.400;17.260;2023-06-22T03:35:13;7.93;;;5.25;;
52946;SDS011;68773;40.400;17.260;2023-06-22T03:37:39;7.88;;;5.13;;
52946;SDS011;68773;40.400;17.260;2023-06-22T03:40:05;14.88;;;6.15;;
52946;SDS011;68773;40.400;17.260;2023-06-22T03:42:33;13.68;;;6.57;;
52946;SDS011;68773;40.400;17.260;2023-06-22T03:44:59;8.43;;;5.82;;
52946;SDS011;68773;40.400;17.260;2023-06-22T03:47:26;11.02;;;5.85;;
52946;SDS011;68773;40.400;17.260;2023-06-22T03:49:51;8.27;;;5.47;;
52946;SDS011;68773;40.400;17.260;2023-06-22T03:52:20;8.07;;;5.85;;
52946;SDS011;68773;40.400;17.260;2023-06-22T03:54:47;8.73;;;5.50;;
52946;SDS011;68773;40.400;17.260;2023-06-22T03:57:13;8.02;;;5.50;;
52946;SDS011;68773;40.400;17.260;2023-06-22T03:59:38;7.35;;;5.60;;
52946;SDS011;68773;40.400;17.260;2023-06-22T04:02:04;9.02;;;6.20;;
52946;SDS011;68773;40.400;17.260;2023-06-22T04:04:30;8.73;;;6.05;;
52946;SDS011;68773;40.400;17.260;2023-06-22T04:06:56;7.72;;;5.88;;
52946;SDS011;68773;40.400;17.260;2023-06-22T04:09:21;9.32;;;5.93;;
52946;SDS011;68773;40.400;17.260;2023-06-22T04:11:47;8.05;;;6.10;;
52946;SDS011;68773;40.400;17.260;2023-06-22T04:14:13;9.95;;;6.40;;
52946;SDS011;68773;40.400;17.260;2023-06-22T04:16:39;7.75;;;6.18;;
52946;SDS011;68773;40.400;17.260;2023-06-22T04:19:04;10.10;;;6.40;;
52946;SDS011;68773;40.400;17.260;2023-06-22T04:21:30;8.38;;;5.60;;
52946;SDS011;68773;40.400;17.260;2023-06-22T04:23:56;7.30;;;5.50;;
52946;SDS011;68773;40.400;17.260;2023-06-22T04:26:22;8.10;;;5.47;;
52946;SDS011;68773;40.400;17.260;2023-06-22T04:28:48;8.27;;;5.97;;
52946;SDS011;68773;40.400;17.260;2023-06-22T04:31:20;9.05;;;5.63;;
52946;SDS011;68773;40.400;17.260;2023-06-22T04:33:46;8.27;;;5.63;;
52946;SDS011;68773;40.400;17.260;2023-06-22T04:36:12;7.95;;;5.65;;
52946;SDS011;68773;40.400;17.260;2023-06-22T04:38:38;11.13;;;5.60;;
52946;SDS011;68773;40.400;17.260;2023-06-22T04:41:04;8.55;;;5.43;;
52946;SDS011;68773;40.400;17.260;2023-06-22T04:43:31;7.03;;;4.82;;
52946;SDS011;68773;40.400;17.260;2023-06-22T04:45:59;8.15;;;5.47;;
52946;SDS011;68773;40.400;17.260;2023-06-22T04:48:28;9.57;;;5.15;;
52946;SDS011;68773;40.400;17.260;2023-06-22T04:50:58;7.70;;;5.22;;
52946;SDS011;68773;40.400;17.260;2023-06-22T04:53:28;7.68;;;5.32;;
52946;SDS011;68773;40.400;17.260;2023-06-22T04:55:54;11.60;;;5.45;;
52946;SDS011;68773;40.400;17.260;2023-06-22T04:58:20;10.77;;;4.88;;
52946;SDS011;68773;40.400;17.260;2023-06-22T05:00:46;7.28;;;5.03;;
52946;SDS011;68773;40.400;17.260;2023-06-22T05:03:12;6.93;;;4.60;;
52946;SDS011;68773;40.400;17.260;2023-06-22T05:05:38;8.38;;;4.63;;
52946;SDS011;68773;40.400;17.260;2023-06-22T05:08:04;7.20;;;4.93;;
52946;SDS011;68773;40.400;17.260;2023-06-22T05:10:31;10.10;;;4.55;;
52946;SDS011;68773;40.400;17.260;2023-06-22T05:12:58;8.98;;;5.28;;
52946;SDS011;68773;40.400;17.260;2023-06-22T05:15:24;9.00;;;5.18;;
52946;SDS011;68773;40.400;17.260;2023-06-22T05:17:53;7.22;;;5.03;;
52946;SDS011;68773;40.400;17.260;2023-06-22T05:20:19;8.07;;;4.90;;
52946;SDS011;68773;40.400;17.260;2023-06-22T05:22:44;8.05;;;4.85;;
52946;SDS011;68773;40.400;17.260;2023-06-22T05:25:13;10.05;;;4.95;;
52946;SDS011;68773;40.400;17.260;2023-06-22T05:27:39;11.88;;;5.55;;
52946;SDS011;68773;40.400;17.260;2023-06-22T05:30:08;9.90;;;5.20;;
52946;SDS011;68773;40.400;17.260;2023-06-22T05:32:35;6.85;;;5.30;;
52946;SDS011;68773;40.400;17.260;2023-06-22T05:35:01;9.25;;;5.40;;
52946;SDS011;68773;40.400;17.260;2023-06-22T05:37:28;8.20;;;5.38;;
52946;SDS011;68773;40.400;17.260;2023-06-22T05:39:54;7.53;;;5.00;;
52946;SDS011;68773;40.400;17.260;2023-06-22T05:42:20;8.20;;;5.40;;
52946;SDS011;68773;40.400;17.260;2023-06-22T05:44:46;10.90;;;5.25;;
52946;SDS011;68773;40.400;17.260;2023-06-22T05:47:12;10.07;;;4.72;;
52946;SDS011;68773;40.400;17.260;2023-06-22T05:49:38;10.95;;;5.22;;
52946;SDS011;68773;40.400;17.260;2023-06-22T05:52:04;11.93;;;4.97;;
52946;SDS011;68773;40.400;17.260;2023-06-22T05:54:30;11.25;;;5.03;;
52946;SDS011;68773;40.400;17.260;2023-06-22T05:56:56;9.73;;;5.15;;
52946;SDS011;68773;40.400;17.260;2023-06-22T05:59:21;14.60;;;5.25;;
52946;SDS011;68773;40.400;17.260;2023-06-22T06:01:47;14.48;;;5.10;;
52946;SDS011;68773;40.400;17.260;2023-06-22T06:04:19;10.73;;;5.20;;
52946;SDS011;68773;40.400;17.260;2023-06-22T06:06:45;8.55;;;4.85;;
52946;SDS011;68773;40.400;17.260;2023-06-22T06:09:15;11.68;;;4.95;;
52946;SDS011;68773;40.400;17.260;2023-06-22T06:11:41;8.05;;;4.43;;
52946;SDS011;68773;40.400;17.260;2023-06-22T06:14:07;7.65;;;4.30;;
52946;SDS011;68773;40.400;17.260;2023-06-22T06:16:33;11.55;;;4.82;;
52946;SDS011;68773;40.400;17.260;2023-06-22T06:18:58;8.00;;;5.15;;
52946;SDS011;68773;40.400;17.260;2023-06-22T06:21:24;11.68;;;5.20;;
52946;SDS011;68773;40.400;17.260;2023-06-22T06:23:50;8.32;;;4.18;;
52946;SDS011;68773;40.400;17.260;2023-06-22T06:26:15;14.05;;;5.25;;
52946;SDS011;68773;40.400;17.260;2023-06-22T06:28:42;11.60;;;4.53;;
52946;SDS011;68773;40.400;17.260;2023-06-22T06:31:08;7.88;;;4.47;;
52946;SDS011;68773;40.400;17.260;2023-06-22T06:33:34;10.40;;;4.82;;
52946;SDS011;68773;40.400;17.260;2023-06-22T06:36:01;9.45;;;5.18;;
52946;SDS011;68773;40.400;17.260;2023-06-22T06:38:28;9.50;;;4.65;;
52946;SDS011;68773;40.400;17.260;2023-06-22T06:40:55;16.55;;;6.05;;
52946;SDS011;68773;40.400;17.260;2023-06-22T06:43:21;6.65;;;5.00;;
52946;SDS011;68773;40.400;17.260;2023-06-22T06:45:47;10.77;;;5.30;;
52946;SDS011;68773;40.400;17.260;2023-06-22T06:48:13;7.28;;;5.07;;
52946;SDS011;68773;40.400;17.260;2023-06-22T06:50:39;9.25;;;4.82;;
52946;SDS011;68773;40.400;17.260;2023-06-22T06:53:05;11.38;;;4.93;;
52946;SDS011;68773;40.400;17.260;2023-06-22T06:55:31;9.73;;;5.25;;
52946;SDS011;68773;40.400;17.260;2023-06-22T06:57:58;10.05;;;5.18;;
52946;SDS011;68773;40.400;17.260;2023-06-22T07:00:25;10.75;;;5.50;;
52946;SDS011;68773;40.400;17.260;2023-06-22T07:02:51;10.00;;;5.60;;
52946;SDS011;68773;40.400;17.260;2023-06-22T07:05:17;8.93;;;5.13;;
52946;SDS011;68773;40.400;17.260;2023-06-22T07:07:42;9.25;;;5.47;;
52946;SDS011;68773;40.400;17.260;2023-06-22T07:10:08;7.80;;;5.30;;
52946;SDS011;68773;40.400;17.260;2023-06-22T07:12:34;8.98;;;5.05;;
52946;SDS011;68773;40.400;17.260;2023-06-22T07:15:01;12.10;;;5.43;;
52946;SDS011;68773;40.400;17.260;2023-06-22T07:17:34;10.40;;;5.10;;
52946;SDS011;68773;40.400;17.260;2023-06-22T07:20:01;15.07;;;5.63;;
52946;SDS011;68773;40.400;17.260;2023-06-22T07:22:32;13.05;;;5.57;;
52946;SDS011;68773;40.400;17.260;2023-06-22T07:24:58;16.58;;;5.60;;
52946;SDS011;68773;40.400;17.260;2023-06-22T07:27:24;9.82;;;5.35;;
52946;SDS011;68773;40.400;17.260;2023-06-22T07:29:50;14.40;;;5.13;;
52946;SDS011;68773;40.400;17.260;2023-06-22T07:32:15;12.25;;;5.53;;
52946;SDS011;68773;40.400;17.260;2023-06-22T07:34:41;12.05;;;5.15;;
52946;SDS011;68773;40.400;17.260;2023-06-22T07:37:07;8.90;;;4.82;;
52946;SDS011;68773;40.400;17.260;2023-06-22T07:39:33;8.85;;;4.32;;
52946;SDS011;68773;40.400;17.260;2023-06-22T07:41:59;8.50;;;5.25;;
52946;SDS011;68773;40.400;17.260;2023-06-22T07:44:25;10.35;;;4.75;;
52946;SDS011;68773;40.400;17.260;2023-06-22T07:46:51;11.98;;;5.25;;
52946;SDS011;68773;40.400;17.260;2023-06-22T07:49:17;11.80;;;5.40;;
52946;SDS011;68773;40.400;17.260;2023-06-22T07:51:42;10.60;;;5.53;;
52946;SDS011;68773;40.400;17.260;2023-06-22T07:54:08;11.75;;;5.63;;
52946;SDS011;68773;40.400;17.260;2023-06-22T07:56:35;9.68;;;5.32;;
52946;SDS011;68773;40.400;17.260;2023-06-22T07:59:02;8.45;;;5.30;;
52946;SDS011;68773;40.400;17.260;2023-06-22T08:01:28;13.00;;;5.75;;
52946;SDS011;68773;40.400;17.260;2023-06-22T08:03:54;10.23;;;5.90;;
52946;SDS011;68773;40.400;17.260;2023-06-22T08:06:20;14.70;;;5.30;;
52946;SDS011;68773;40.400;17.260;2023-06-22T08:08:46;9.35;;;5.88;;
52946;SDS011;68773;40.400;17.260;2023-06-22T08:11:14;10.43;;;5.10;;
52946;SDS011;68773;40.400;17.260;2023-06-22T08:13:39;12.07;;;5.22;;
52946;SDS011;68773;40.400;17.260;2023-06-22T08:16:05;11.75;;;4.82;;
52946;SDS011;68773;40.400;17.260;2023-06-22T08:18:32;8.15;;;4.30;;
52946;SDS011;68773;40.400;17.260;2023-06-22T08:20:58;10.52;;;4.75;;
52946;SDS011;68773;40.400;17.260;2023-06-22T08:23:23;8.85;;;3.97;;
52946;SDS011;68773;40.400;17.260;2023-06-22T08:25:49;6.43;;;4.20;;
52946;SDS011;68773;40.400;17.260;2023-06-22T08:28:15;11.82;;;5.00;;
52946;SDS011;68773;40.400;17.260;2023-06-22T08:30:41;17.35;;;4.57;;
52946;SDS011;68773;40.400;17.260;2023-06-22T08:33:07;11.85;;;5.15;;
52946;SDS011;68773;40.400;17.260;2023-06-22T08:35:32;11.88;;;5.60;;
52946;SDS011;68773;40.400;17.260;2023-06-22T08:37:58;10.73;;;5.45;;
52946;SDS011;68773;40.400;17.260;2023-06-22T08:40:25;11.57;;;5.57;;
52946;SDS011;68773;40.400;17.260;2023-06-22T08:42:51;10.23;;;5.68;;
52946;SDS011;68773;40.400;17.260;2023-06-22T08:45:16;11.48;;;5.20;;
52946;SDS011;68773;40.400;17.260;2023-06-22T08:47:42;11.80;;;5.38;;
52946;SDS011;68773;40.400;17.260;2023-06-22T08:50:08;10.25;;;5.80;;
52946;SDS011;68773;40.400;17.260;2023-06-22T08:52:35;12.50;;;6.22;;
52946;SDS011;68773;40.400;17.260;2023-06-22T08:55:02;9.63;;;6.05;;
52946;SDS011;68773;40.400;17.260;2023-06-22T08:57:28;11.45;;;6.15;;
52946;SDS011;68773;40.400;17.260;2023-06-22T08:59:55;12.88;;;6.18;;
52946;SDS011;68773;40.400;17.260;2023-06-22T09:02:23;14.98;;;6.22;;
52946;SDS011;68773;40.400;17.260;2023-06-22T09:04:50;11.80;;;6.80;;
52946;SDS011;68773;40.400;17.260;2023-06-22T09:07:20;16.10;;;6.38;;
52946;SDS011;68773;40.400;17.260;2023-06-22T09:09:50;8.02;;;6.03;;
52946;SDS011;68773;40.400;17.260;2023-06-22T09:12:16;10.50;;;5.75;;
52946;SDS011;68773;40.400;17.260;2023-06-22T09:14:48;11.65;;;5.95;;
52946;SDS011;68773;40.400;17.260;2023-06-22T09:17:13;9.75;;;5.40;;
52946;SDS011;68773;40.400;17.260;2023-06-22T09:19:39;13.23;;;6.43;;
52946;SDS011;68773;40.400;17.260;2023-06-22T09:22:05;10.10;;;6.68;;
52946;SDS011;68773;40.400;17.260;2023-06-22T09:24:32;10.18;;;5.80;;
52946;SDS011;68773;40.400;17.260;2023-06-22T09:26:58;11.75;;;6.95;;
52946;SDS011;68773;40.400;17.260;2023-06-22T09:29:24;10.05;;;6.10;;
52946;SDS011;68773;40.400;17.260;2023-06-22T09:31:50;11.82;;;5.63;;
52946;SDS011;68773;40.400;17.260;2023-06-22T09:34:15;7.68;;;4.55;;
52946;SDS011;68773;40.400;17.260;2023-06-22T09:36:45;8.25;;;5.10;;
52946;SDS011;68773;40.400;17.260;2023-06-22T09:39:11;10.55;;;5.85;;
52946;SDS011;68773;40.400;17.260;2023-06-22T09:41:37;10.27;;;6.50;;
52946;SDS011;68773;40.400;17.260;2023-06-22T09:44:02;11.48;;;6.40;;
52946;SDS011;68773;40.400;17.260;2023-06-22T09:46:28;11.15;;;6.20;;
52946;SDS011;68773;40.400;17.260;2023-06-22T09:48:54;9.80;;;5.93;;
52946;SDS011;68773;40.400;17.260;2023-06-22T09:51:19;11.77;;;5.30;;
52946;SDS011;68773;40.400;17.260;2023-06-22T09:53:46;11.48;;;5.45;;
52946;SDS011;68773;40.400;17.260;2023-06-22T09:56:13;11.85;;;5.95;;
52946;SDS011;68773;40.400;17.260;2023-06-22T09:58:42;11.80;;;5.45;;
52946;SDS011;68773;40.400;17.260;2023-06-22T10:04:27;11.98;;;5.22;;
52946;SDS011;68773;40.400;17.260;2023-06-22T10:06:52;11.32;;;4.70;;
52946;SDS011;68773;40.400;17.260;2023-06-22T10:09:18;7.95;;;3.42;;
52946;SDS011;68773;40.400;17.260;2023-06-22T10:11:44;10.32;;;4.95;;
52946;SDS011;68773;40.400;17.260;2023-06-22T10:14:09;8.98;;;4.78;;
52946;SDS011;68773;40.400;17.260;2023-06-22T10:16:36;11.45;;;5.05;;
52946;SDS011;68773;40.400;17.260;2023-06-22T10:19:01;11.05;;;5.07;;
52946;SDS011;68773;40.400;17.260;2023-06-22T10:21:27;9.32;;;4.35;;
52946;SDS011;68773;40.400;17.260;2023-06-22T10:23:53;10.63;;;6.35;;
52946;SDS011;68773;40.400;17.260;2023-06-22T10:26:20;9.05;;;4.95;;
52946;SDS011;68773;40.400;17.260;2023-06-22T10:28:46;13.40;;;5.05;;
52946;SDS011;68773;40.400;17.260;2023-06-22T10:31:11;18.50;;;5.60;;
52946;SDS011;68773;40.400;17.260;2023-06-22T10:33:37;12.35;;;6.68;;
52946;SDS011;68773;40.400;17.260;2023-06-22T10:36:03;11.38;;;6.15;;
52946;SDS011;68773;40.400;17.260;2023-06-22T10:38:29;10.57;;;6.20;;
52946;SDS011;68773;40.400;17.260;2023-06-22T10:40:55;26.55;;;7.18;;
52946;SDS011;68773;40.400;17.260;2023-06-22T10:43:21;13.45;;;5.80;;
52946;SDS011;68773;40.400;17.260;2023-06-22T10:45:46;11.50;;;5.78;;
52946;SDS011;68773;40.400;17.260;2023-06-22T10:48:12;9.40;;;5.00;;
52946;SDS011;68773;40.400;17.260;2023-06-22T10:50:38;12.18;;;5.30;;
52946;SDS011;68773;40.400;17.260;2023-06-22T10:53:03;10.90;;;5.13;;
52946;SDS011;68773;40.400;17.260;2023-06-22T10:55:29;8.50;;;5.10;;
52946;SDS011;68773;40.400;17.260;2023-06-22T10:57:55;14.25;;;5.50;;
52946;SDS011;68773;40.400;17.260;2023-06-22T11:00:21;14.25;;;6.18;;
52946;SDS011;68773;40.400;17.260;2023-06-22T11:02:46;16.73;;;5.65;;
52946;SDS011;68773;40.400;17.260;2023-06-22T11:05:12;10.07;;;5.68;;
52946;SDS011;68773;40.400;17.260;2023-06-22T11:07:41;13.40;;;5.43;;
52946;SDS011;68773;40.400;17.260;2023-06-22T11:10:08;9.05;;;4.95;;
52946;SDS011;68773;40.400;17.260;2023-06-22T11:12:34;13.50;;;5.45;;
52946;SDS011;68773;40.400;17.260;2023-06-22T11:15:00;12.32;;;4.82;;
52946;SDS011;68773;40.400;17.260;2023-06-22T11:17:26;12.18;;;4.78;;
52946;SDS011;68773;40.400;17.260;2023-06-22T11:19:52;14.45;;;5.03;;
52946;SDS011;68773;40.400;17.260;2023-06-22T11:22:17;9.57;;;5.35;;
52946;SDS011;68773;40.400;17.260;2023-06-22T11:24:43;10.65;;;4.57;;
52946;SDS011;68773;40.400;17.260;2023-06-22T11:27:09;12.70;;;4.80;;
52946;SDS011;68773;40.400;17.260;2023-06-22T11:29:35;10.23;;;4.95;;
52946;SDS011;68773;40.400;17.260;2023-06-22T11:32:01;10.85;;;4.55;;
52946;SDS011;68773;40.400;17.260;2023-06-22T11:34:26;8.00;;;4.65;;
52946;SDS011;68773;40.400;17.260;2023-06-22T11:36:53;11.38;;;4.55;;
52946;SDS011;68773;40.400;17.260;2023-06-22T11:39:18;11.38;;;5.18;;
52946;SDS011;68773;40.400;17.260;2023-06-22T11:41:45;9.15;;;4.65;;
52946;SDS011;68773;40.400;17.260;2023-06-22T11:44:10;14.05;;;5.22;;
52946;SDS011;68773;40.400;17.260;2023-06-22T11:46:36;15.32;;;5.82;;
52946;SDS011;68773;40.400;17.260;2023-06-22T11:49:02;9.38;;;4.88;;
52946;SDS011;68773;40.400;17.260;2023-06-22T11:51:28;13.82;;;5.38;;
52946;SDS011;68773;40.400;17.260;2023-06-22T11:53:56;8.98;;;5.38;;
52946;SDS011;68773;40.400;17.260;2023-06-22T11:56:22;9.35;;;4.72;;
52946;SDS011;68773;40.400;17.260;2023-06-22T11:58:47;8.68;;;4.88;;
52946;SDS011;68773;40.400;17.260;2023-06-22T12:01:13;9.88;;;4.88;;
52946;SDS011;68773;40.400;17.260;2023-06-22T12:03:40;9.38;;;5.60;;
52946;SDS011;68773;40.400;17.260;2023-06-22T12:06:08;10.07;;;5.13;;
52946;SDS011;68773;40.400;17.260;2023-06-22T12:08:34;11.95;;;5.28;;
52946;SDS011;68773;40.400;17.260;2023-06-22T12:14:18;15.77;;;5.97;;
52946;SDS011;68773;40.400;17.260;2023-06-22T12:16:44;10.05;;;5.13;;
52946;SDS011;68773;40.400;17.260;2023-06-22T12:19:10;16.38;;;6.22;;
52946;SDS011;68773;40.400;17.260;2023-06-22T12:21:37;15.85;;;6.38;;
52946;SDS011;68773;40.400;17.260;2023-06-22T12:24:03;10.68;;;5.32;;
52946;SDS011;68773;40.400;17.260;2023-06-22T12:26:29;14.38;;;5.72;;
52946;SDS011;68773;40.400;17.260;2023-06-22T12:28:54;12.05;;;5.80;;
52946;SDS011;68773;40.400;17.260;2023-06-22T12:31:20;13.05;;;6.18;;
52946;SDS011;68773;40.400;17.260;2023-06-22T12:33:46;9.57;;;5.63;;
52946;SDS011;68773;40.400;17.260;2023-06-22T12:36:11;12.60;;;5.50;;
52946;SDS011;68773;40.400;17.260;2023-06-22T12:38:37;10.77;;;5.28;;
52946;SDS011;68773;40.400;17.260;2023-06-22T12:41:03;12.18;;;5.72;;
52946;SDS011;68773;40.400;17.260;2023-06-22T12:43:28;12.23;;;5.53;;
52946;SDS011;68773;40.400;17.260;2023-06-22T12:45:54;10.98;;;5.32;;
52946;SDS011;68773;40.400;17.260;2023-06-22T12:48:21;9.30;;;5.20;;
52946;SDS011;68773;40.400;17.260;2023-06-22T12:50:47;10.40;;;5.60;;
52946;SDS011;68773;40.400;17.260;2023-06-22T12:53:13;7.78;;;5.38;;
52946;SDS011;68773;40.400;17.260;2023-06-22T12:55:38;10.90;;;5.30;;
52946;SDS011;68773;40.400;17.260;2023-06-22T12:58:04;11.30;;;5.38;;
52946;SDS011;68773;40.400;17.260;2023-06-22T13:00:30;11.80;;;5.57;;
52946;SDS011;68773;40.400;17.260;2023-06-22T13:02:56;20.10;;;6.03;;
52946;SDS011;68773;40.400;17.260;2023-06-22T13:05:21;11.60;;;5.10;;
52946;SDS011;68773;40.400;17.260;2023-06-22T13:07:47;11.48;;;5.00;;
52946;SDS011;68773;40.400;17.260;2023-06-22T13:10:13;13.70;;;5.60;;
52946;SDS011;68773;40.400;17.260;2023-06-22T13:12:39;13.18;;;5.65;;
52946;SDS011;68773;40.400;17.260;2023-06-22T13:15:05;9.63;;;5.13;;
52946;SDS011;68773;40.400;17.260;2023-06-22T13:17:31;12.43;;;5.22;;
52946;SDS011;68773;40.400;17.260;2023-06-22T13:19:57;11.88;;;5.55;;
52946;SDS011;68773;40.400;17.260;2023-06-22T13:22:32;8.00;;;5.40;;
52946;SDS011;68773;40.400;17.260;2023-06-22T13:25:04;9.98;;;5.57;;
52946;SDS011;68773;40.400;17.260;2023-06-22T13:27:31;11.43;;;4.90;;
52946;SDS011;68773;40.400;17.260;2023-06-22T13:29:57;12.13;;;5.40;;
52946;SDS011;68773;40.400;17.260;2023-06-22T13:32:22;9.65;;;5.45;;
52946;SDS011;68773;40.400;17.260;2023-06-22T13:34:48;9.43;;;4.95;;
52946;SDS011;68773;40.400;17.260;2023-06-22T13:37:14;6.47;;;4.93;;
52946;SDS011;68773;40.400;17.260;2023-06-22T13:39:40;9.25;;;5.25;;
52946;SDS011;68773;40.400;17.260;2023-06-22T13:42:05;8.95;;;5.20;;
52946;SDS011;68773;40.400;17.260;2023-06-22T13:44:31;9.10;;;4.93;;
52946;SDS011;68773;40.400;17.260;2023-06-22T13:46:57;7.70;;;5.10;;
52946;SDS011;68773;40.400;17.260;2023-06-22T13:49:23;10.90;;;5.45;;
52946;SDS011;68773;40.400;17.260;2023-06-22T13:51:49;7.60;;;5.35;;
52946;SDS011;68773;40.400;17.260;2023-06-22T13:54:16;11.43;;;5.15;;
52946;SDS011;68773;40.400;17.260;2023-06-22T13:56:42;9.15;;;5.05;;
52946;SDS011;68773;40.400;17.260;2023-06-22T13:59:07;22.35;;;6.43;;
52946;SDS011;68773;40.400;17.260;2023-06-22T14:01:36;10.40;;;5.28;;
52946;SDS011;68773;40.400;17.260;2023-06-22T14:04:05;10.32;;;6.05;;
52946;SDS011;68773;40.400;17.260;2023-06-22T14:06:30;8.85;;;4.90;;
52946;SDS011;68773;40.400;17.260;2023-06-22T14:08:56;11.48;;;5.10;;
52946;SDS011;68773;40.400;17.260;2023-06-22T14:11:22;10.15;;;4.97;;
52946;SDS011;68773;40.400;17.260;2023-06-22T14:13:47;8.85;;;4.80;;
52946;SDS011;68773;40.400;17.260;2023-06-22T14:16:13;7.00;;;4.65;;
52946;SDS011;68773;40.400;17.260;2023-06-22T14:18:39;8.52;;;4.47;;
52946;SDS011;68773;40.400;17.260;2023-06-22T14:21:05;12.77;;;4.65;;
52946;SDS011;68773;40.400;17.260;2023-06-22T14:23:31;8.23;;;4.35;;
52946;SDS011;68773;40.400;17.260;2023-06-22T14:25:56;8.63;;;4.75;;
52946;SDS011;68773;40.400;17.260;2023-06-22T14:28:22;10.68;;;4.88;;
52946;SDS011;68773;40.400;17.260;2023-06-22T14:30:48;12.10;;;4.28;;
52946;SDS011;68773;40.400;17.260;2023-06-22T14:33:14;8.07;;;4.82;;
52946;SDS011;68773;40.400;17.260;2023-06-22T14:35:39;7.15;;;4.07;;
52946;SDS011;68773;40.400;17.260;2023-06-22T14:38:05;9.60;;;4.00;;
52946;SDS011;68773;40.400;17.260;2023-06-22T14:40:31;7.80;;;4.13;;
52946;SDS011;68773;40.400;17.260;2023-06-22T14:42:57;9.38;;;4.03;;